Time;durP1;ratioP1;P1;durP2;ratioP2;P2;SDS_P1;SDS_P2;PMS_P1;PMS_P2;Temp;Humidity;BMP_temperature;BMP_pressure;BME280_temperature;BME280_humidity;BME280_pressure;Samples;Min_cycle;Max_cycle;Signal;HPM_P1;HPM_P2
2021/09/08 00:00:49;;;;;;;0.20;0.20;;;;;;;2.32;69.03;97997.50;6185791;23;20013;-63
2021/09/08 00:03:14;;;;;;;0.60;0.60;;;;;;;2.32;69.02;97996.69;6184219;23;20423;-63
2021/09/08 00:05:40;;;;;;;0.20;0.20;;;;;;;2.34;68.94;97998.16;6185804;23;20036;-63
2021/09/08 00:08:06;;;;;;;0.20;0.20;;;;;;;2.35;69.04;97994.41;6185598;23;20013;-63
2021/09/08 00:10:32;;;;;;;0.65;0.45;;;;;;;2.35;68.88;97991.69;6185984;23;20036;-63
2021/09/08 00:12:58;;;;;;;0.20;0.20;;;;;;;2.34;68.93;97995.47;6185921;23;20013;-63
2021/09/08 00:15:23;;;;;;;0.20;0.20;;;;;;;2.36;68.79;97993.38;6185658;23;20019;-61
2021/09/08 00:17:49;;;;;;;0.22;0.22;;;;;;;2.39;68.79;97990.25;6185853;23;20388;-61
2021/09/08 00:20:15;;;;;;;1.25;0.40;;;;;;;2.41;68.85;97980.03;6185499;23;20037;-62
2021/09/08 00:22:45;;;;;;;0.22;0.22;;;;;;;2.43;68.66;97977.16;6185502;23;20013;-63
2021/09/08 00:25:12;;;;;;;0.20;0.20;;;;;;;2.43;68.80;97977.97;6185439;23;20088;-62
2021/09/08 00:27:39;;;;;;;0.20;0.20;;;;;;;2.44;68.74;97967.97;6184959;23;20019;-63
2021/09/08 00:30:06;;;;;;;0.30;0.30;;;;;;;2.45;68.64;97970.47;6185576;23;20009;-63
2021/09/08 00:32:32;;;;;;;0.20;0.20;;;;;;;2.47;68.80;97978.41;6185647;23;20544;-63
2021/09/08 00:34:57;;;;;;;0.20;0.20;;;;;;;2.47;68.68;97972.16;6185607;23;20009;-63
2021/09/08 00:37:23;;;;;;;0.22;0.22;;;;;;;2.47;68.85;97966.72;6185290;23;20079;-61
2021/09/08 00:39:49;;;;;;;0.20;0.20;;;;;;;2.44;68.85;97960.69;6186158;23;20040;-61
2021/09/08 00:42:16;;;;;;;0.30;0.30;;;;;;;2.45;68.81;97962.34;6185678;23;20016;-62
2021/09/08 00:44:43;;;;;;;0.20;0.20;;;;;;;2.44;68.96;97955.28;6185164;23;20017;-62
2021/09/08 00:47:16;;;;;;;0.20;0.20;;;;;;;2.44;68.94;97952.56;6185402;23;20016;-63
2021/09/08 00:49:44;;;;;;;0.50;0.50;;;;;;;2.42;68.99;97945.66;6185186;23;20481;-63
2021/09/08 00:52:12;;;;;;;0.20;0.20;;;;;;;2.39;69.24;97944.19;6185273;23;20056;-64
2021/09/08 00:54:38;;;;;;;0.22;0.22;;;;;;;2.38;69.24;97944.41;6184949;23;20012;-63
2021/09/08 00:57:07;;;;;;;0.20;0.20;;;;;;;2.38;69.22;97938.97;6185511;23;20016;-63
2021/09/08 00:59:33;;;;;;;0.22;0.22;;;;;;;2.34;69.26;97930.44;6184768;23;20528;-64
2021/09/08 01:02:00;;;;;;;0.20;0.20;;;;;;;2.44;69.27;97941.72;6185267;23;20356;-65
2021/09/08 01:04:27;;;;;;;0.20;0.20;;;;;;;2.50;69.23;97934.63;6185221;23;20040;-63
2021/09/08 01:06:57;;;;;;;0.20;0.20;;;;;;;2.57;68.86;97929.22;6185278;23;20051;-62
2021/09/08 01:09:24;;;;;;;0.20;0.20;;;;;;;2.67;68.85;97923.44;6185137;23;20005;-61
2021/09/08 01:11:49;;;;;;;0.20;0.20;;;;;;;2.79;68.43;97928.00;6185276;23;20013;-63
2021/09/08 01:14:15;;;;;;;0.20;0.20;;;;;;;2.92;68.26;97912.81;6185344;23;20060;-61
2021/09/08 01:16:41;;;;;;;0.20;0.20;;;;;;;3.04;67.95;97913.84;6185112;23;20032;-62
2021/09/08 01:19:07;;;;;;;0.20;0.20;;;;;;;3.14;67.69;97908.84;6185143;23;20112;-62
2021/09/08 01:21:32;;;;;;;0.20;0.20;;;;;;;3.28;67.61;97906.97;6185056;23;20033;-63
2021/09/08 01:24:08;;;;;;;0.20;0.20;;;;;;;3.40;67.51;97903.59;6185001;23;20016;-62
2021/09/08 01:26:38;;;;;;;0.22;0.22;;;;;;;3.47;67.20;97902.53;6184921;23;20035;-62
2021/09/08 01:29:04;;;;;;;0.20;0.20;;;;;;;3.55;67.17;97904.22;6184056;23;20107;-63
2021/09/08 01:31:31;;;;;;;0.43;0.43;;;;;;;3.61;67.26;97895.22;6184920;23;20013;-62
2021/09/08 01:33:56;;;;;;;0.20;0.20;;;;;;;3.71;66.94;97900.22;6185220;23;20413;-63
2021/09/08 01:36:22;;;;;;;0.20;0.20;;;;;;;3.77;66.92;97891.22;6184764;23;20009;-62
2021/09/08 01:38:48;;;;;;;0.22;0.22;;;;;;;3.84;66.88;97896.59;6185171;23;20162;-64
2021/09/08 01:41:14;;;;;;;0.57;0.40;;;;;;;3.92;66.97;97898.25;6184857;23;20009;-62
2021/09/08 01:43:39;;;;;;;0.28;0.28;;;;;;;3.98;66.72;97891.97;6184851;23;20023;-62
2021/09/08 01:46:05;;;;;;;0.20;0.20;;;;;;;4.07;66.57;97887.13;6184645;23;20438;-61
2021/09/08 01:48:31;;;;;;;0.35;0.35;;;;;;;4.18;66.37;97892.72;6184835;23;20196;-62
2021/09/08 01:50:57;;;;;;;0.20;0.20;;;;;;;4.33;66.10;97883.44;6184933;23;20029;-62
2021/09/08 01:53:23;;;;;;;0.40;0.40;;;;;;;4.43;65.89;97882.97;6184787;23;20020;-63
2021/09/08 01:55:50;;;;;;;0.20;0.20;;;;;;;4.47;65.91;97868.72;6184899;23;20009;-62
2021/09/08 01:58:16;;;;;;;0.20;0.20;;;;;;;4.56;65.94;97872.00;6184055;23;20013;-62
2021/09/08 02:00:43;;;;;;;0.38;0.38;;;;;;;4.60;65.79;97875.13;6184800;23;20039;-61
2021/09/08 02:03:09;;;;;;;0.30;0.30;;;;;;;4.55;66.07;97881.22;6157990;23;20017;-61
2021/09/08 02:05:35;;;;;;;0.20;0.20;;;;;;;4.48;66.17;97880.44;6184245;23;20432;-62
2021/09/08 02:08:02;;;;;;;0.30;0.30;;;;;;;4.43;66.43;97882.97;6184562;23;20019;-63
2021/09/08 02:10:27;;;;;;;0.25;0.25;;;;;;;4.36;66.72;97885.72;6184417;23;20019;-62
2021/09/08 02:12:53;;;;;;;0.32;0.32;;;;;;;4.27;67.00;97896.03;6184942;23;20383;-61
2021/09/08 02:15:19;;;;;;;0.20;0.20;;;;;;;4.20;67.09;97895.22;6184675;23;20401;-62
2021/09/08 02:17:45;;;;;;;0.30;0.30;;;;;;;4.14;67.32;97896.91;6184643;23;20016;-62
2021/09/08 02:20:11;;;;;;;0.30;0.30;;;;;;;4.09;67.48;97891.28;6184918;23;20017;-62
2021/09/08 02:22:37;;;;;;;0.30;0.30;;;;;;;4.06;67.56;97883.56;6184299;23;20036;-61
2021/09/08 02:25:04;;;;;;;0.20;0.20;;;;;;;4.02;67.53;97882.34;6183023;23;20462;-62
2021/09/08 02:27:30;;;;;;;0.20;0.20;;;;;;;4.03;67.53;97884.00;6179876;23;20013;-63
2021/09/08 02:29:56;;;;;;;0.32;0.32;;;;;;;4.03;67.66;97886.72;6180456;23;20063;-63
2021/09/08 02:32:21;;;;;;;0.20;0.20;;;;;;;4.07;67.60;97890.66;6181865;23;20013;-63
2021/09/08 02:34:47;;;;;;;0.20;0.20;;;;;;;4.11;67.50;97891.91;6184184;23;20013;-62
2021/09/08 02:37:13;;;;;;;0.20;0.20;;;;;;;4.18;67.29;97881.84;6184070;23;20013;-63
2021/09/08 02:39:39;;;;;;;0.30;0.30;;;;;;;4.28;67.10;97885.97;6184268;23;20103;-62
2021/09/08 02:42:05;;;;;;;0.40;0.40;;;;;;;4.33;67.12;97888.88;6184884;23;20358;-62
2021/09/08 02:44:31;;;;;;;0.30;0.30;;;;;;;4.40;66.95;97878.78;6182764;23;20037;-64
2021/09/08 02:46:57;;;;;;;0.30;0.30;;;;;;;4.52;66.76;97887.94;6184495;23;20614;-62
2021/09/08 02:49:23;;;;;;;2.30;0.45;;;;;;;4.66;66.45;97877.78;6184289;23;20001;-62
2021/09/08 02:51:48;;;;;;;0.30;0.30;;;;;;;4.80;66.24;97883.13;6184698;23;20071;-63
2021/09/08 02:54:14;;;;;;;0.20;0.20;;;;;;;4.83;66.30;97879.97;6184227;23;20092;-63
2021/09/08 02:56:40;;;;;;;0.20;0.20;;;;;;;4.90;66.25;97873.44;6184436;23;20008;-63
2021/09/08 02:59:05;;;;;;;0.20;0.20;;;;;;;4.90;66.37;97878.03;6183358;23;20449;-63
2021/09/08 03:01:31;;;;;;;0.20;0.20;;;;;;;4.87;66.57;97870.31;6184058;23;20027;-62
2021/09/08 03:03:57;;;;;;;0.40;0.40;;;;;;;4.82;66.59;97870.16;6182352;23;20473;-62
2021/09/08 03:06:22;;;;;;;0.20;0.20;;;;;;;4.82;66.78;97870.97;6183960;23;20354;-62
2021/09/08 03:08:48;;;;;;;0.50;0.45;;;;;;;4.84;66.86;97868.88;6184042;23;20103;-61
2021/09/08 03:11:14;;;;;;;0.20;0.20;;;;;;;4.83;66.92;97861.78;6182901;23;20016;-63
2021/09/08 03:13:39;;;;;;;0.20;0.20;;;;;;;4.89;66.88;97854.63;6182795;23;20070;-63
2021/09/08 03:16:05;;;;;;;0.30;0.30;;;;;;;4.98;66.63;97857.91;6182988;23;20561;-62
2021/09/08 03:18:31;;;;;;;0.20;0.20;;;;;;;5.11;66.29;97852.34;6184895;23;20012;-63
2021/09/08 03:20:56;;;;;;;0.75;0.68;;;;;;;5.26;66.05;97838.38;6184846;23;20012;-61
2021/09/08 03:23:22;;;;;;;0.40;0.40;;;;;;;5.43;65.60;97844.91;6184820;23;20009;-61
2021/09/08 03:25:48;;;;;;;0.20;0.20;;;;;;;5.59;65.32;97843.50;6185410;23;20017;-62
2021/09/08 03:28:14;;;;;;;0.25;0.25;;;;;;;5.69;65.17;97839.38;6184355;23;20009;-63
2021/09/08 03:30:39;;;;;;;0.17;0.17;;;;;;;5.67;65.29;97839.63;6184762;23;20016;-62
2021/09/08 03:33:05;;;;;;;0.20;0.20;;;;;;;5.63;65.40;97834.84;6184556;23;20449;-62
2021/09/08 03:35:31;;;;;;;1.55;0.60;;;;;;;5.58;65.76;97830.06;6184874;23;20016;-64
2021/09/08 03:37:56;;;;;;;0.20;0.20;;;;;;;5.54;65.82;97839.78;6184588;23;20040;-63
2021/09/08 03:40:23;;;;;;;0.47;0.22;;;;;;;5.50;66.06;97814.88;6184765;23;20009;-62
2021/09/08 03:42:48;;;;;;;0.20;0.20;;;;;;;5.53;66.09;97821.75;6184676;23;20012;-63
2021/09/08 03:45:14;;;;;;;0.38;0.38;;;;;;;5.56;66.16;97815.84;6184689;23;20070;-63
2021/09/08 03:47:41;;;;;;;0.20;0.20;;;;;;;5.58;66.04;97802.84;6184754;23;20009;-64
2021/09/08 03:50:09;;;;;;;0.20;0.20;;;;;;;5.67;65.79;97806.09;6184816;23;20442;-62
2021/09/08 03:52:35;;;;;;;0.30;0.30;;;;;;;5.75;65.62;97806.59;6184670;23;20389;-62
2021/09/08 03:55:01;;;;;;;0.20;0.20;;;;;;;5.84;65.53;97806.31;6183643;23;20009;-63
2021/09/08 03:57:26;;;;;;;0.20;0.20;;;;;;;5.99;65.16;97795.84;6181826;23;20385;-64
2021/09/08 03:59:52;;;;;;;0.20;0.20;;;;;;;6.18;64.84;97796.66;6184489;23;20013;-63
2021/09/08 04:02:18;;;;;;;0.20;0.20;;;;;;;6.35;64.44;97796.84;6184102;23;20020;-62
2021/09/08 04:04:43;;;;;;;0.30;0.30;;;;;;;6.45;64.37;97807.19;6183897;23;20116;-62
2021/09/08 04:07:09;;;;;;;0.30;0.30;;;;;;;6.51;64.38;97806.25;6184543;23;20009;-61
2021/09/08 04:09:35;;;;;;;0.20;0.20;;;;;;;6.51;64.44;97808.13;6184180;23;20076;-62
2021/09/08 04:12:00;;;;;;;0.38;0.38;;;;;;;6.45;64.75;97809.91;6184250;23;20019;-61
2021/09/08 04:14:26;;;;;;;0.10;0.10;;;;;;;6.41;65.03;97814.16;6184194;23;20012;-61
2021/09/08 04:16:52;;;;;;;0.20;0.20;;;;;;;6.35;65.25;97809.66;6183815;23;20020;-61
2021/09/08 04:19:18;;;;;;;0.38;0.38;;;;;;;6.28;65.39;97810.56;6184130;23;20015;-62
2021/09/08 04:21:43;;;;;;;0.20;0.20;;;;;;;6.31;65.47;97806.53;6184286;23;20012;-62
2021/09/08 04:24:09;;;;;;;0.10;0.10;;;;;;;6.34;65.37;97805.25;6184097;23;20017;-63
2021/09/08 04:26:35;;;;;;;0.20;0.20;;;;;;;6.44;65.30;97810.97;6184017;23;20068;-62
2021/09/08 04:29:01;;;;;;;0.20;0.20;;;;;;;6.53;65.10;97809.56;6183253;23;20056;-62
2021/09/08 04:31:26;;;;;;;0.20;0.20;;;;;;;6.61;64.85;97806.50;6184078;23;20013;-62
2021/09/08 04:33:52;;;;;;;0.20;0.20;;;;;;;6.61;64.92;97806.50;6184177;23;20095;-61
2021/09/08 04:36:18;;;;;;;0.20;0.20;;;;;;;6.63;64.90;97811.72;6184125;23;20020;-63
2021/09/08 04:38:45;;;;;;;0.20;0.20;;;;;;;6.57;65.18;97812.66;6184181;23;20418;-62
2021/09/08 04:41:12;;;;;;;0.20;0.20;;;;;;;6.52;65.35;97813.34;6184439;23;20009;-63
2021/09/08 04:43:38;;;;;;;0.20;0.20;;;;;;;6.51;65.43;97821.75;6184049;23;20013;-61
2021/09/08 04:46:04;;;;;;;0.20;0.20;;;;;;;6.46;65.61;97808.84;6183890;23;20009;-61
2021/09/08 04:48:30;;;;;;;0.20;0.20;;;;;;;6.45;65.69;97823.56;6184217;23;20067;-62
2021/09/08 04:50:56;;;;;;;0.20;0.20;;;;;;;6.44;65.56;97811.78;6183756;23;20044;-62
2021/09/08 04:53:21;;;;;;;0.30;0.30;;;;;;;6.63;65.26;97803.56;6184000;23;20016;-63
2021/09/08 04:55:47;;;;;;;0.40;0.40;;;;;;;6.89;64.74;97818.66;6183949;23;20020;-62
2021/09/08 04:58:14;;;;;;;0.20;0.20;;;;;;;7.03;64.42;97818.44;6183791;23;20019;-63
2021/09/08 05:00:39;;;;;;;0.10;0.10;;;;;;;7.11;64.20;97816.19;6183984;23;20024;-62
2021/09/08 05:03:05;;;;;;;0.20;0.20;;;;;;;7.16;64.19;97823.66;6183852;23;20005;-62
2021/09/08 05:05:31;;;;;;;0.40;0.40;;;;;;;7.19;64.20;97813.09;6184380;23;20013;-61
2021/09/08 05:07:57;;;;;;;0.20;0.20;;;;;;;7.28;64.13;97815.47;6185139;23;20009;-62
2021/09/08 05:10:23;;;;;;;0.75;0.57;;;;;;;7.32;64.06;97817.47;6185527;23;20016;-62
2021/09/08 05:12:49;;;;;;;0.20;0.20;;;;;;;7.28;64.32;97810.81;6185211;23;20366;-62
2021/09/08 05:15:16;;;;;;;0.20;0.20;;;;;;;7.21;64.48;97817.47;6185290;23;20513;-63
2021/09/08 05:17:41;;;;;;;0.20;0.20;;;;;;;7.14;64.54;97815.72;6185079;23;20020;-62
2021/09/08 05:20:08;;;;;;;0.17;0.17;;;;;;;7.16;64.42;97815.47;6185171;23;20446;-63
2021/09/08 05:22:34;;;;;;;0.30;0.30;;;;;;;7.32;64.30;97830.31;6184994;23;20013;-63
2021/09/08 05:25:00;;;;;;;0.30;0.30;;;;;;;7.47;64.11;97827.09;6185301;23;20315;-62
2021/09/08 05:27:26;;;;;;;0.40;0.40;;;;;;;7.57;63.88;97810.06;6184820;23;20016;-62
2021/09/08 05:29:51;;;;;;;0.28;0.28;;;;;;;7.58;63.78;97809.00;6185114;23;20036;-62
2021/09/08 05:32:18;;;;;;;0.20;0.20;;;;;;;7.59;63.75;97816.16;6185366;23;20010;-63
2021/09/08 05:34:43;;;;;;;0.20;0.20;;;;;;;7.65;63.82;97807.81;6185017;23;20005;-62
2021/09/08 05:37:09;;;;;;;0.20;0.20;;;;;;;7.72;63.67;97808.50;6185264;23;20460;-62
2021/09/08 05:39:35;;;;;;;0.13;0.13;;;;;;;7.72;63.76;97804.94;6184869;23;20009;-63
2021/09/08 05:42:01;;;;;;;0.20;0.20;;;;;;;7.82;63.62;97799.69;6185002;23;20012;-63
2021/09/08 05:44:26;;;;;;;0.20;0.20;;;;;;;7.92;63.49;97801.81;6185054;23;20087;-63
2021/09/08 05:46:52;;;;;;;0.30;0.30;;;;;;;7.91;63.59;97797.41;6185477;23;20044;-64
2021/09/08 05:49:18;;;;;;;0.30;0.30;;;;;;;7.80;63.74;97801.84;6185194;23;20013;-62
2021/09/08 05:51:44;;;;;;;0.20;0.20;;;;;;;7.70;64.11;97807.94;6185021;23;20029;-63
2021/09/08 05:54:09;;;;;;;0.20;0.20;;;;;;;7.69;64.36;97799.97;6184853;23;20070;-61
2021/09/08 05:56:35;;;;;;;0.10;0.10;;;;;;;7.63;64.29;97809.97;6184816;23;20087;-63
2021/09/08 05:59:02;;;;;;;0.10;0.10;;;;;;;7.54;64.59;97805.94;6184375;23;20019;-62
2021/09/08 06:01:27;;;;;;;0.20;0.20;;;;;;;7.45;64.87;97810.09;6185669;23;20013;-62
2021/09/08 06:03:54;;;;;;;0.20;0.20;;;;;;;7.42;64.93;97805.97;6184984;23;20410;-63
2021/09/08 06:06:19;;;;;;;0.20;0.20;;;;;;;7.44;64.84;97808.44;6185002;23;20013;-62
2021/09/08 06:08:45;;;;;;;0.30;0.30;;;;;;;7.56;64.67;97802.97;6184741;23;20087;-63
2021/09/08 06:11:11;;;;;;;0.20;0.20;;;;;;;7.73;64.17;97801.16;6184852;23;20163;-63
2021/09/08 06:13:37;;;;;;;0.15;0.15;;;;;;;7.93;63.71;97786.25;6184681;23;20374;-63
2021/09/08 06:16:04;;;;;;;0.50;0.25;;;;;;;8.19;63.07;97787.56;6184729;23;20041;-64
2021/09/08 06:18:29;;;;;;;0.20;0.20;;;;;;;8.36;62.78;97796.66;6158577;23;20029;-63
2021/09/08 06:20:56;;;;;;;0.20;0.20;;;;;;;8.46;62.78;97784.25;6184909;23;20016;-63
2021/09/08 06:23:22;;;;;;;0.20;0.20;;;;;;;8.41;62.94;97784.97;6184401;23;20009;-63
2021/09/08 06:25:48;;;;;;;0.20;0.20;;;;;;;8.35;63.06;97788.69;6184603;23;20020;-62
2021/09/08 06:28:14;;;;;;;0.20;0.20;;;;;;;8.36;63.27;97793.91;6181309;23;20050;-64
2021/09/08 06:30:40;;;;;;;0.20;0.20;;;;;;;8.33;63.35;97794.41;6184860;23;20400;-63
2021/09/08 06:33:06;;;;;;;0.10;0.10;;;;;;;8.25;63.57;97803.00;6184094;23;20442;-63
2021/09/08 06:35:31;;;;;;;0.17;0.17;;;;;;;8.22;63.98;97793.38;6184602;23;20016;-64
2021/09/08 06:37:57;;;;;;;0.52;0.47;;;;;;;8.29;63.75;97793.22;6184564;23;20008;-64
2021/09/08 06:40:23;;;;;;;0.25;0.25;;;;;;;8.35;63.62;97810.56;6184574;23;20019;-63
2021/09/08 06:42:49;;;;;;;0.20;0.20;;;;;;;8.36;63.45;97795.78;6184313;23;20009;-64
2021/09/08 06:45:16;;;;;;;0.20;0.20;;;;;;;8.31;63.43;97793.00;6184596;23;20020;-63
2021/09/08 06:47:42;;;;;;;0.50;0.50;;;;;;;8.20;64.02;97806.47;6184330;23;20013;-62
2021/09/08 06:50:08;;;;;;;0.73;0.40;;;;;;;8.18;63.97;97797.66;6184187;23;20410;-62
2021/09/08 06:52:34;;;;;;;0.20;0.20;;;;;;;8.23;63.73;97789.56;6187377;23;20036;-62
2021/09/08 06:55:01;;;;;;;0.55;0.45;;;;;;;8.40;63.51;97781.38;6187781;23;20016;-63
2021/09/08 06:57:26;;;;;;;0.20;0.20;;;;;;;8.63;62.97;97787.84;6160485;23;20084;-63
2021/09/08 06:59:52;;;;;;;0.20;0.20;;;;;;;9.06;62.03;97791.81;6187366;23;20009;-61
2021/09/08 07:02:18;;;;;;;0.22;0.22;;;;;;;9.48;61.02;97793.25;6187671;23;20009;-62
2021/09/08 07:04:43;;;;;;;0.10;0.10;;;;;;;9.60;61.15;97790.41;6187479;23;20017;-63
2021/09/08 07:07:09;;;;;;;0.20;0.20;;;;;;;9.58;61.20;97787.06;6187644;23;20413;-63
2021/09/08 07:09:35;;;;;;;0.20;0.20;;;;;;;9.38;61.47;97785.72;6187826;23;20013;-63
2021/09/08 07:12:01;;;;;;;0.20;0.20;;;;;;;9.26;62.22;97780.34;6187368;23;20033;-63
2021/09/08 07:14:27;;;;;;;0.40;0.40;;;;;;;9.16;62.29;97779.34;6188088;23;20063;-64
2021/09/08 07:16:53;;;;;;;0.28;0.28;;;;;;;8.95;62.90;97779.03;6187617;23;20005;-63
2021/09/08 07:19:18;;;;;;;0.20;0.20;;;;;;;8.80;63.35;97776.06;6187454;23;20016;-63
2021/09/08 07:21:44;;;;;;;0.50;0.50;;;;;;;8.73;63.66;97771.59;6187547;23;20017;-63
2021/09/08 07:24:10;;;;;;;0.57;0.30;;;;;;;8.73;63.44;97773.47;6187419;23;20402;-64
2021/09/08 07:26:36;;;;;;;0.20;0.20;;;;;;;8.74;63.60;97769.69;6187860;23;20088;-62
2021/09/08 07:29:03;;;;;;;0.30;0.30;;;;;;;8.72;63.39;97772.66;6160340;23;20013;-63
2021/09/08 07:31:29;;;;;;;0.20;0.20;;;;;;;8.70;63.67;97774.84;6187622;23;20446;-63
2021/09/08 07:33:55;;;;;;;0.20;0.20;;;;;;;8.69;63.51;97775.91;6187307;23;20009;-62
2021/09/08 07:36:21;;;;;;;0.20;0.20;;;;;;;8.64;63.70;97780.44;6187423;23;20009;-64
2021/09/08 07:38:47;;;;;;;0.20;0.20;;;;;;;8.56;63.88;97773.50;6185542;23;20327;-65
2021/09/08 07:41:14;;;;;;;0.22;0.22;;;;;;;8.51;64.13;97774.22;6187534;23;20068;-63
2021/09/08 07:43:39;;;;;;;0.30;0.30;;;;;;;8.52;63.79;97775.06;6187718;23;20055;-64
2021/09/08 07:46:05;;;;;;;0.20;0.20;;;;;;;8.52;63.89;97778.59;6187567;23;20017;-62
2021/09/08 07:48:31;;;;;;;0.88;0.30;;;;;;;8.51;63.97;97779.72;6187918;23;20013;-63
2021/09/08 07:50:57;;;;;;;0.20;0.20;;;;;;;8.44;64.09;97781.75;6187548;23;20056;-62
2021/09/08 07:53:23;;;;;;;0.15;0.15;;;;;;;8.33;64.39;97783.47;6187650;23;20075;-63
2021/09/08 07:55:49;;;;;;;0.20;0.20;;;;;;;8.31;64.35;97788.34;6187543;23;20048;-62
2021/09/08 07:58:14;;;;;;;0.20;0.20;;;;;;;8.28;64.55;97782.53;6187257;23;20397;-62
2021/09/08 08:00:40;;;;;;;0.10;0.10;;;;;;;8.27;64.29;97778.94;6188060;23;20382;-63
2021/09/08 08:03:06;;;;;;;0.20;0.20;;;;;;;8.23;64.63;97786.00;6186059;23;20017;-63
2021/09/08 08:05:33;;;;;;;0.20;0.20;;;;;;;8.24;64.50;97776.72;6184392;23;20412;-63
2021/09/08 08:07:59;;;;;;;0.20;0.20;;;;;;;8.21;64.48;97775.28;6186301;23;20350;-63
2021/09/08 08:10:26;;;;;;;0.20;0.20;;;;;;;8.16;64.44;97761.53;6185767;23;20009;-62
2021/09/08 08:12:53;;;;;;;0.20;0.20;;;;;;;8.13;64.79;97777.63;6185848;23;20016;-63
2021/09/08 08:15:19;;;;;;;0.10;0.10;;;;;;;8.04;64.74;97764.31;6185709;23;20009;-63
2021/09/08 08:17:45;;;;;;;0.20;0.20;;;;;;;8.06;64.76;97781.31;6186103;23;20084;-63
2021/09/08 08:20:12;;;;;;;0.20;0.20;;;;;;;8.13;64.75;97775.69;6186008;23;20048;-63
2021/09/08 08:22:39;;;;;;;0.20;0.20;;;;;;;8.18;64.61;97756.63;6185722;23;20009;-62
2021/09/08 08:25:08;;;;;;;0.20;0.20;;;;;;;8.16;64.64;97752.53;6185529;23;20063;-62
2021/09/08 08:27:35;;;;;;;0.13;0.13;;;;;;;8.05;64.83;97748.75;6185304;23;20084;-62
2021/09/08 08:30:02;;;;;;;0.20;0.20;;;;;;;7.96;64.93;97742.84;6185639;23;20016;-62
2021/09/08 08:32:28;;;;;;;0.20;0.20;;;;;;;7.90;65.30;97757.47;6185813;23;20079;-61
2021/09/08 08:34:54;;;;;;;0.20;0.20;;;;;;;7.89;65.28;97751.19;6185488;23;20043;-63
2021/09/08 08:37:20;;;;;;;0.30;0.30;;;;;;;7.88;65.30;97763.19;6185659;23;20009;-64
2021/09/08 08:39:46;;;;;;;0.20;0.20;;;;;;;7.87;65.24;97760.72;6184007;23;20079;-64
2021/09/08 08:42:23;;;;;;;0.43;0.20;;;;;;;7.85;65.44;97746.47;6186077;23;20088;-62
2021/09/08 08:44:50;;;;;;;0.10;0.10;;;;;;;7.82;65.45;97746.97;6185402;23;20044;-63
2021/09/08 08:47:17;;;;;;;0.10;0.10;;;;;;;7.81;65.41;97750.75;6186331;23;20016;-64
2021/09/08 08:49:44;;;;;;;0.20;0.20;;;;;;;7.85;65.62;97751.94;6185587;23;20009;-63
2021/09/08 08:52:11;;;;;;;0.25;0.25;;;;;;;7.93;65.56;97748.78;6185191;23;20029;-63
2021/09/08 08:54:36;;;;;;;0.20;0.20;;;;;;;8.09;65.17;97751.84;6185150;23;20017;-63
2021/09/08 08:57:03;;;;;;;0.13;0.13;;;;;;;8.15;65.01;97748.13;6185355;23;20013;-63
2021/09/08 08:59:28;;;;;;;0.20;0.20;;;;;;;8.20;64.96;97748.19;6184854;23;20013;-64
2021/09/08 09:01:54;;;;;;;0.50;0.50;;;;;;;8.39;64.68;97754.28;6185509;23;20083;-63
2021/09/08 09:04:21;;;;;;;0.20;0.20;;;;;;;8.66;64.13;97751.78;6185108;23;20012;-62
2021/09/08 09:06:49;;;;;;;0.20;0.20;;;;;;;8.95;63.61;97743.44;6185157;23;20009;-63
2021/09/08 09:09:19;;;;;;;1.10;0.45;;;;;;;9.20;63.08;97743.03;6185168;23;20092;-65
2021/09/08 09:11:48;;;;;;;0.20;0.20;;;;;;;9.25;63.33;97751.28;6185178;23;20055;-63
2021/09/08 09:14:15;;;;;;;0.10;0.10;;;;;;;9.21;63.65;97744.66;6183306;23;20327;-63
2021/09/08 09:16:42;;;;;;;0.20;0.20;;;;;;;9.16;63.99;97743.75;6185434;23;20013;-64
2021/09/08 09:19:12;;;;;;;0.20;0.20;;;;;;;9.07;64.22;97740.63;6184993;23;20016;-63
2021/09/08 09:21:39;;;;;;;0.20;0.20;;;;;;;8.93;64.69;97743.69;6185448;23;20381;-63
2021/09/08 09:24:07;;;;;;;0.13;0.13;;;;;;;8.89;64.97;97745.31;6185317;23;20013;-62
2021/09/08 09:26:36;;;;;;;0.20;0.20;;;;;;;8.88;65.22;97751.84;6185250;23;20019;-62
2021/09/08 09:29:11;;;;;;;0.20;0.20;;;;;;;8.97;64.87;97743.22;6184233;23;20009;-63
2021/09/08 09:31:53;;;;;;;0.20;0.20;;;;;;;9.14;64.83;97751.41;6184934;23;20091;-63
2021/09/08 09:34:20;;;;;;;0.20;0.20;;;;;;;9.10;64.79;97748.34;6185538;23;20397;-63
2021/09/08 09:36:46;;;;;;;0.20;0.20;;;;;;;9.10;65.01;97749.16;6184965;23;20013;-63
2021/09/08 09:39:11;;;;;;;0.20;0.20;;;;;;;9.08;65.02;97745.88;6184799;23;20083;-64
2021/09/08 09:41:37;;;;;;;0.20;0.20;;;;;;;9.04;65.15;97755.66;6185005;23;20453;-63
2021/09/08 09:44:16;;;;;;;0.10;0.10;;;;;;;9.01;65.49;97742.47;6184827;23;20040;-63
2021/09/08 09:46:44;;;;;;;0.17;0.17;;;;;;;9.03;65.31;97747.69;6185562;23;20571;-64
2021/09/08 09:49:11;;;;;;;0.10;0.10;;;;;;;9.05;65.19;97754.56;6184747;23;20009;-62
2021/09/08 09:51:37;;;;;;;0.10;0.10;;;;;;;9.00;65.49;97753.66;6184662;23;20033;-62
2021/09/08 09:54:03;;;;;;;0.10;0.10;;;;;;;8.97;65.58;97749.53;6184677;23;20418;-62
2021/09/08 09:56:29;;;;;;;0.50;0.50;;;;;;;8.93;65.65;97757.38;6182955;23;20044;-62
2021/09/08 09:58:55;;;;;;;0.30;0.30;;;;;;;8.90;66.03;97744.19;6182721;23;20041;-63
2021/09/08 10:01:21;;;;;;;0.20;0.20;;;;;;;8.87;65.92;97741.16;6183269;23;20009;-65
2021/09/08 10:03:47;;;;;;;0.30;0.30;;;;;;;8.86;66.03;97734.00;6183029;23;20059;-62
2021/09/08 10:06:14;;;;;;;0.30;0.30;;;;;;;8.87;66.11;97721.97;6182857;23;20009;-63
2021/09/08 10:08:47;;;;;;;0.20;0.20;;;;;;;8.86;66.11;97734.84;6183096;23;20059;-62
2021/09/08 10:11:19;;;;;;;0.20;0.20;;;;;;;8.92;65.90;97724.78;6183144;23;20013;-63
2021/09/08 10:13:52;;;;;;;0.20;0.20;;;;;;;8.96;65.93;97734.16;6183082;23;20009;-64
2021/09/08 10:16:57;;;;;;;0.10;0.10;;;;;;;9.08;65.56;97734.06;6182306;23;20013;-61
2021/09/08 10:19:49;;;;;;;;;;;;;;;9.20;65.29;97733.94;6180596;23;20080;-62
2021/09/08 10:23:00;;;;;;;0.10;0.10;;;;;;;9.30;65.31;97731.34;6182967;23;20333;-64
2021/09/08 10:26:05;;;;;;;0.10;0.10;;;;;;;9.41;64.71;97722.19;6181187;23;20017;-60
2021/09/08 10:29:11;;;;;;;0.10;0.10;;;;;;;9.43;65.02;97719.19;6180428;23;20037;-62
2021/09/08 10:31:59;;;;;;;;;;;;;;;9.44;65.04;97713.47;6179592;23;20036;-63
2021/09/08 10:49:04;;;;;;;0.20;0.20;;;;;;;9.04;66.02;97722.78;6172221;23;20131;-64
2021/09/08 10:51:32;;;;;;;0.25;0.25;;;;;;;8.93;66.22;97724.53;6180742;23;20021;-62
2021/09/08 10:54:38;;;;;;;0.13;0.13;;;;;;;8.89;66.31;97731.63;6181345;23;20450;-62
2021/09/08 10:57:42;;;;;;;0.20;0.20;;;;;;;8.83;66.37;97731.78;6181447;23;20464;-64
2021/09/08 11:00:51;;;;;;;0.20;0.20;;;;;;;8.83;66.54;97732.59;6181167;23;20036;-63
2021/09/08 11:03:16;;;;;;;0.17;0.17;;;;;;;8.79;66.40;97739.66;6175437;23;20009;-61
2021/09/08 11:05:50;;;;;;;0.20;0.20;;;;;;;8.77;66.52;97726.22;6179565;23;20023;-61
2021/09/08 11:08:34;;;;;;;0.20;0.20;;;;;;;8.79;66.52;97730.59;6180776;23;20017;-60
2021/09/08 11:11:15;;;;;;;0.20;0.20;;;;;;;8.81;66.53;97723.81;6154743;23;20442;-63
2021/09/08 11:13:41;;;;;;;0.10;0.10;;;;;;;8.83;66.41;97727.13;6180876;23;20045;-62
2021/09/08 11:16:33;;;;;;;0.15;0.15;;;;;;;8.91;66.44;97714.94;6180647;23;20005;-61
2021/09/08 11:19:02;;;;;;;0.20;0.20;;;;;;;8.97;66.17;97711.19;6177762;23;20438;-61
2021/09/08 11:21:29;;;;;;;0.22;0.22;;;;;;;9.09;65.72;97709.16;6181163;23;20076;-61
2021/09/08 11:24:02;;;;;;;0.50;0.50;;;;;;;9.19;65.61;97713.16;6180475;23;20099;-63
2021/09/08 11:26:30;;;;;;;0.20;0.20;;;;;;;9.25;65.70;97717.59;6180910;23;20009;-60
2021/09/08 11:28:59;;;;;;;0.20;0.20;;;;;;;9.27;65.62;97710.75;6180190;23;20469;-62
2021/09/08 11:31:25;;;;;;;0.20;0.20;;;;;;;9.25;65.62;97709.38;6180821;23;20009;-61
2021/09/08 11:33:50;;;;;;;0.20;0.20;;;;;;;9.21;66.06;97710.97;6180474;23;20013;-60
2021/09/08 11:36:19;;;;;;;0.10;0.10;;;;;;;9.16;66.00;97705.41;6180570;23;20013;-62
2021/09/08 11:38:56;;;;;;;0.20;0.20;;;;;;;9.12;65.97;97707.84;6181977;23;20013;-63
2021/09/08 11:41:29;;;;;;;0.30;0.30;;;;;;;9.14;66.09;97708.41;6182642;23;20362;-65
2021/09/08 11:43:58;;;;;;;0.20;0.20;;;;;;;9.17;65.91;97712.56;6182131;23;20023;-61
2021/09/08 11:46:31;;;;;;;0.30;0.30;;;;;;;9.19;65.94;97707.66;6182406;23;20013;-62
2021/09/08 11:49:07;;;;;;;0.20;0.20;;;;;;;9.18;66.04;97715.03;6182538;23;20009;-63
2021/09/08 11:51:35;;;;;;;0.20;0.20;;;;;;;9.15;66.11;97712.00;6182577;23;20377;-64
2021/09/08 11:54:04;;;;;;;0.20;0.20;;;;;;;9.11;66.11;97706.16;6182087;23;20017;-64
2021/09/08 11:56:31;;;;;;;0.28;0.28;;;;;;;9.15;66.11;97706.50;6182656;23;20008;-64
2021/09/08 11:58:59;;;;;;;0.20;0.20;;;;;;;9.18;66.06;97706.00;6181561;23;20013;-62